Time;durP1;ratioP1;P1;durP2;ratioP2;P2;SDS_P1;SDS_P2;PMS_P1;PMS_P2;Temp;Humidity;BMP_temperature;BMP_pressure;BME280_temperature;BME280_humidity;BME280_pressure;Samples;Min_cycle;Max_cycle;Signal;HPM_P1;HPM_P2
2023/03/16 00:02:05;;;;;;;2.42;1.00;;;;;;;2.92;66.61;92989.06;5008843;28;20060;-78
2023/03/16 00:04:30;;;;;;;2.00;0.80;;;;;;;2.73;66.55;92972.53;5009885;28;20038;-79
2023/03/16 00:06:56;;;;;;;0.90;0.90;;;;;;;2.51;67.46;92997.50;5009311;28;20038;-78
2023/03/16 00:09:29;;;;;;;0.80;0.80;;;;;;;2.28;67.67;92981.78;5008835;28;20727;-75
2023/03/16 00:11:56;;;;;;;0.80;0.80;;;;;;;2.27;67.99;92988.88;5010001;28;20458;-77
2023/03/16 00:14:21;;;;;;;0.80;0.80;;;;;;;2.20;68.55;92996.31;5009673;28;20033;-77
2023/03/16 00:16:47;;;;;;;0.70;0.70;;;;;;;2.10;69.16;93012.16;5010119;28;20376;-77
2023/03/16 00:19:12;;;;;;;0.75;0.75;;;;;;;2.21;69.00;93024.09;5006175;28;20046;-78
2023/03/16 00:21:37;;;;;;;0.85;0.70;;;;;;;2.21;67.70;93002.31;5008230;28;20536;-76
2023/03/16 00:24:03;;;;;;;0.70;0.70;;;;;;;2.14;67.34;92958.09;4991925;28;20050;-77
2023/03/16 00:26:29;;;;;;;0.90;0.90;;;;;;;2.17;68.07;93002.09;5007002;28;20036;-76
2023/03/16 00:28:54;;;;;;;0.95;0.80;;;;;;;2.15;67.50;92991.13;5008970;28;20124;-76
2023/03/16 00:31:19;;;;;;;0.75;0.75;;;;;;;1.88;67.79;92993.53;5009745;28;20050;-79
2023/03/16 00:33:45;;;;;;;0.80;0.80;;;;;;;1.94;68.63;93003.69;5010469;28;20498;-77
2023/03/16 00:36:11;;;;;;;0.70;0.70;;;;;;;2.10;68.64;93009.53;5015147;28;20088;-77
2023/03/16 00:38:39;;;;;;;1.77;0.80;;;;;;;2.15;68.33;92993.75;5005375;28;20141;-78
2023/03/16 00:41:06;;;;;;;0.80;0.80;;;;;;;2.31;68.39;93025.81;5011505;28;20724;-77
2023/03/16 00:43:40;;;;;;;0.93;0.90;;;;;;;2.37;67.76;93012.38;5013038;28;20452;-78
2023/03/16 00:46:07;;;;;;;1.10;0.90;;;;;;;2.40;67.31;93032.03;4993738;28;20037;-78
2023/03/16 00:48:35;;;;;;;1.20;1.20;;;;;;;2.33;67.42;93021.88;5007923;28;20026;-78
2023/03/16 00:51:06;;;;;;;0.80;0.80;;;;;;;2.48;67.47;93034.03;5010759;28;20109;-79
2023/03/16 00:53:32;;;;;;;0.80;0.80;;;;;;;2.22;67.39;93025.66;5015598;28;20049;-79
2023/03/16 00:55:58;;;;;;;1.80;1.00;;;;;;;1.75;68.47;92984.44;5000429;28;20034;-78
2023/03/16 00:58:24;;;;;;;0.90;0.90;;;;;;;1.96;69.01;93037.50;5013833;28;20040;-78
2023/03/16 01:00:51;;;;;;;1.33;0.90;;;;;;;2.01;69.19;93029.59;5010238;28;20052;-77
2023/03/16 01:03:16;;;;;;;0.90;0.90;;;;;;;1.81;68.92;93000.91;5011242;28;20037;-79
2023/03/16 01:05:41;;;;;;;1.10;1.00;;;;;;;1.63;69.01;92992.69;5010889;28;20029;-78
2023/03/16 01:08:08;;;;;;;0.93;0.90;;;;;;;1.53;68.98;92998.03;5011299;28;20121;-77
2023/03/16 01:10:36;;;;;;;0.95;0.80;;;;;;;1.64;69.61;93009.19;5012681;28;20113;-77
2023/03/16 01:13:02;;;;;;;1.17;0.90;;;;;;;1.84;68.43;93019.50;5012319;28;20047;-77
2023/03/16 01:15:29;;;;;;;1.85;0.90;;;;;;;1.79;68.55;93014.28;5011654;28;20046;-78
2023/03/16 01:17:55;;;;;;;0.82;0.80;;;;;;;2.04;67.70;93034.25;5009780;28;20034;-78
2023/03/16 01:20:20;;;;;;;0.80;0.80;;;;;;;1.57;68.62;92983.31;5011929;28;20040;-77
2023/03/16 01:22:46;;;;;;;0.80;0.80;;;;;;;1.61;68.73;93021.03;5009358;28;20111;-78
2023/03/16 01:25:12;;;;;;;1.20;1.10;;;;;;;1.37;69.77;93043.78;4999401;28;20450;-78
2023/03/16 01:27:38;;;;;;;1.27;1.17;;;;;;;1.16;70.95;93040.53;4980569;28;20032;-76
2023/03/16 01:30:04;;;;;;;1.10;1.00;;;;;;;1.02;72.03;93041.41;4991585;28;20030;-77
2023/03/16 01:32:30;;;;;;;1.10;1.00;;;;;;;1.01;72.63;93026.75;4993689;28;20026;-77
2023/03/16 01:34:56;;;;;;;1.60;1.20;;;;;;;0.89;72.07;93021.09;4978922;28;20038;-78
2023/03/16 01:37:21;;;;;;;1.13;1.02;;;;;;;1.00;72.62;93017.31;4991799;28;20168;-79
2023/03/16 01:39:48;;;;;;;1.63;1.35;;;;;;;1.26;72.18;93044.91;4987635;28;20034;-79
2023/03/16 01:42:14;;;;;;;2.08;1.80;;;;;;;1.27;72.67;93043.84;4992282;28;20464;-78
2023/03/16 01:44:55;;;;;;;3.53;1.55;;;;;;;1.44;72.35;93044.22;4993183;28;20028;-77
2023/03/16 01:47:22;;;;;;;1.10;1.00;;;;;;;1.20;71.45;93052.00;4976463;28;20050;-78
2023/03/16 01:49:53;;;;;;;1.20;1.10;;;;;;;0.82;73.00;93023.22;4991780;28;20042;-79
2023/03/16 01:52:23;;;;;;;0.85;0.85;;;;;;;1.04;73.30;93047.91;4990162;28;20533;-78
2023/03/16 01:54:54;;;;;;;0.80;0.80;;;;;;;1.04;72.67;93015.72;4990543;28;20041;-77
2023/03/16 01:57:23;;;;;;;1.40;1.30;;;;;;;1.18;72.81;93042.88;4991162;28;20892;-78
2023/03/16 02:00:09;;;;;;;0.80;0.80;;;;;;;0.86;72.28;93024.22;4990030;28;20120;-78
2023/03/16 02:02:38;;;;;;;0.82;0.82;;;;;;;0.96;71.55;93029.41;4991382;28;20049;-80
2023/03/16 02:05:04;;;;;;;0.80;0.80;;;;;;;1.01;71.82;93063.41;4991509;28;20502;-78
2023/03/16 02:07:37;;;;;;;0.88;0.88;;;;;;;1.05;70.61;93074.91;4992170;28;20030;-76
2023/03/16 02:10:04;;;;;;;0.98;0.80;;;;;;;1.07;71.58;93065.72;4975927;28;20042;-78
2023/03/16 02:12:30;;;;;;;0.75;0.75;;;;;;;1.01;72.02;93068.63;4991956;28;20038;-77
2023/03/16 02:14:55;;;;;;;0.90;0.90;;;;;;;1.02;71.24;93059.75;4992444;28;20029;-78
2023/03/16 02:17:25;;;;;;;0.90;0.90;;;;;;;1.35;71.01;93072.06;4992313;28;20110;-77
2023/03/16 02:20:12;;;;;;;0.80;0.80;;;;;;;1.28;69.83;93074.22;4991648;28;20050;-77
2023/03/16 02:22:42;;;;;;;0.80;0.80;;;;;;;1.38;70.03;93082.00;4992312;28;20185;-77
2023/03/16 02:25:10;;;;;;;0.70;0.70;;;;;;;1.44;69.93;93080.13;5002786;28;20045;-78
2023/03/16 02:27:44;;;;;;;0.60;0.60;;;;;;;1.33;68.60;93076.00;5012273;28;20533;-79
2023/03/16 02:30:18;;;;;;;0.70;0.70;;;;;;;1.21;69.56;93084.22;5010362;28;20044;-79
2023/03/16 02:32:46;;;;;;;0.73;0.73;;;;;;;1.11;70.18;93073.81;5010210;28;20037;-77
2023/03/16 02:35:12;;;;;;;0.82;0.82;;;;;;;1.12;70.47;93081.41;5012510;28;20040;-78
2023/03/16 02:37:38;;;;;;;0.70;0.70;;;;;;;1.00;70.70;93074.94;5008388;28;20535;-78
2023/03/16 02:40:21;;;;;;;0.80;0.80;;;;;;;0.94;70.94;93068.16;5012121;28;20071;-77
2023/03/16 02:42:53;;;;;;;0.75;0.75;;;;;;;1.25;70.47;93098.34;4999385;28;20040;-76
2023/03/16 02:45:20;;;;;;;0.80;0.80;;;;;;;0.99;70.63;93055.03;4999263;28;20030;-79
2023/03/16 02:47:50;;;;;;;0.88;0.80;;;;;;;1.36;69.91;93097.22;5012808;28;20037;-79
2023/03/16 02:50:16;;;;;;;0.70;0.70;;;;;;;1.01;69.95;93086.97;5009356;28;20045;-78
2023/03/16 02:52:41;;;;;;;4.25;0.75;;;;;;;0.89;70.60;93097.00;5010510;28;20399;-77
2023/03/16 02:55:07;;;;;;;0.70;0.70;;;;;;;0.66;71.90;93087.94;5009484;28;20714;-78
2023/03/16 02:57:33;;;;;;;0.80;0.80;;;;;;;0.71;72.86;93101.78;5010855;28;20029;-77
2023/03/16 02:59:59;;;;;;;0.73;0.73;;;;;;;0.35;73.83;93068.97;5007753;28;20188;-79
2023/03/16 03:02:24;;;;;;;1.17;0.70;;;;;;;0.66;73.37;93093.94;5011056;28;20108;-79
2023/03/16 03:04:53;;;;;;;0.80;0.80;;;;;;;0.45;72.51;93081.25;4993437;28;20148;-78
2023/03/16 03:07:19;;;;;;;0.80;0.80;;;;;;;0.51;72.85;93109.72;5010203;28;20089;-79
2023/03/16 03:09:45;;;;;;;1.10;1.00;;;;;;;0.37;72.56;93095.63;5009488;28;20029;-78
2023/03/16 03:12:11;;;;;;;0.82;0.70;;;;;;;0.23;72.41;93118.19;5008969;28;20086;-76
2023/03/16 03:14:38;;;;;;;0.70;0.70;;;;;;;0.04;73.36;93106.72;5009120;28;20088;-77
2023/03/16 03:17:08;;;;;;;0.60;0.60;;;;;;;0.11;73.00;93094.13;4992398;28;20030;-77
2023/03/16 03:19:34;;;;;;;0.70;0.70;;;;;;;0.10;73.09;93103.84;5009381;28;20034;-77
2023/03/16 03:22:02;;;;;;;0.80;0.80;;;;;;;0.22;72.84;93120.00;5009141;28;20144;-77
2023/03/16 03:24:32;;;;;;;0.70;0.70;;;;;;;-0.03;73.58;93116.66;5010140;28;20057;-77
2023/03/16 03:27:00;;;;;;;0.75;0.75;;;;;;;0.08;73.99;93144.34;5008597;28;20025;-78
2023/03/16 03:29:33;;;;;;;0.73;0.73;;;;;;;-0.05;73.66;93135.22;5007528;28;20013;-77
2023/03/16 03:32:00;;;;;;;1.10;1.00;;;;;;;-0.05;75.23;93142.28;5007580;28;20045;-77
2023/03/16 03:34:26;;;;;;;3.08;1.25;;;;;;;0.05;75.51;93123.97;5009641;28;20046;-78
2023/03/16 03:36:52;;;;;;;0.95;0.95;;;;;;;0.25;74.95;93139.63;5009537;28;20042;-78
2023/03/16 03:39:18;;;;;;;1.05;0.85;;;;;;;-0.12;73.31;93132.09;4993201;28;20120;-78
2023/03/16 03:41:43;;;;;;;1.20;0.82;;;;;;;-0.12;73.46;93148.56;5008528;28;20038;-77
2023/03/16 03:44:08;;;;;;;0.70;0.70;;;;;;;-0.13;74.43;93133.13;4992992;28;20556;-77
2023/03/16 03:46:34;;;;;;;0.80;0.80;;;;;;;-0.20;74.65;93117.75;5011057;28;20445;-77
2023/03/16 03:49:04;;;;;;;0.73;0.73;;;;;;;0.04;73.76;93149.34;4991546;28;20037;-77
2023/03/16 03:51:33;;;;;;;1.25;0.90;;;;;;;0.11;72.97;93156.88;5010339;28;20044;-77
2023/03/16 03:53:58;;;;;;;1.05;0.90;;;;;;;-0.17;73.47;93139.94;5009913;28;20505;-77
2023/03/16 03:56:24;;;;;;;0.70;0.70;;;;;;;-0.03;72.73;93179.38;5009753;28;20032;-79
2023/03/16 03:58:50;;;;;;;0.75;0.75;;;;;;;0.11;72.63;93185.66;5007844;28;20041;-78
2023/03/16 04:01:15;;;;;;;1.42;0.80;;;;;;;-0.18;73.33;93161.88;5009034;28;20100;-78
2023/03/16 04:03:41;;;;;;;0.70;0.70;;;;;;;-0.15;72.93;93174.44;5007521;28;21092;-77
2023/03/16 04:06:07;;;;;;;0.80;0.80;;;;;;;-0.04;73.00;93180.47;5011210;28;20026;-78
2023/03/16 04:08:33;;;;;;;0.70;0.70;;;;;;;-0.19;72.35;93145.41;5011065;28;20132;-78
2023/03/16 04:10:58;;;;;;;0.70;0.70;;;;;;;-0.09;72.46;93155.88;5013372;28;20157;-79
2023/03/16 04:13:24;;;;;;;0.73;0.73;;;;;;;-0.01;71.74;93159.78;5012421;28;20034;-78
2023/03/16 04:15:56;;;;;;;1.75;1.38;;;;;;;0.04;71.78;93185.94;5013598;28;20044;-78
2023/03/16 04:18:22;;;;;;;2.90;1.75;;;;;;;-0.07;72.15;93184.38;5012547;28;20453;-77
2023/03/16 04:20:47;;;;;;;0.90;0.90;;;;;;;-0.37;72.20;93158.22;5012665;28;20030;-77
2023/03/16 04:23:15;;;;;;;1.55;1.30;;;;;;;-0.26;72.56;93176.28;5012015;28;20543;-79
2023/03/16 04:25:41;;;;;;;1.48;0.90;;;;;;;-0.21;72.78;93193.78;5010210;28;20058;-78
2023/03/16 04:28:06;;;;;;;1.50;1.40;;;;;;;-0.24;72.91;93183.84;5011922;28;20030;-77
2023/03/16 04:30:32;;;;;;;0.95;0.95;;;;;;;-0.32;71.95;93200.81;5013831;28;20060;-79
2023/03/16 04:32:57;;;;;;;0.98;0.85;;;;;;;-0.21;72.97;93199.78;5002409;28;20091;-78
2023/03/16 04:35:23;;;;;;;6.53;4.28;;;;;;;-0.16;72.59;93196.41;5009810;28;20028;-77
2023/03/16 04:37:48;;;;;;;1.30;1.20;;;;;;;-0.11;71.50;93212.88;5010430;28;20054;-77
2023/03/16 04:40:17;;;;;;;1.70;1.60;;;;;;;-0.28;71.75;93177.56;4997777;28;20048;-78
2023/03/16 04:42:44;;;;;;;2.60;2.40;;;;;;;-0.04;72.26;93201.38;5012574;28;20044;-78
2023/03/16 04:45:11;;;;;;;1.35;1.25;;;;;;;-0.08;71.22;93217.56;5007052;28;20152;-78
2023/03/16 04:47:37;;;;;;;2.00;1.63;;;;;;;-0.03;71.44;93218.59;5011584;28;20606;-78
2023/03/16 04:50:03;;;;;;;2.05;1.75;;;;;;;-0.10;71.20;93208.44;5009144;28;20053;-77
2023/03/16 04:52:29;;;;;;;2.00;1.90;;;;;;;-0.30;71.57;93209.19;5010081;28;20030;-77
2023/03/16 04:54:55;;;;;;;1.00;1.00;;;;;;;-0.47;71.90;93207.84;5013300;28;20069;-77
2023/03/16 04:57:20;;;;;;;1.13;1.10;;;;;;;-0.41;72.60;93214.66;5012466;28;20113;-78
2023/03/16 04:59:46;;;;;;;1.58;1.48;;;;;;;-0.54;73.60;93187.22;5013054;28;20021;-78
2023/03/16 05:02:11;;;;;;;1.10;1.08;;;;;;;-0.06;71.80;93227.75;4999136;28;20048;-80
2023/03/16 05:04:37;;;;;;;2.00;1.60;;;;;;;0.05;71.24;93244.25;5010719;28;20034;-77
2023/03/16 05:07:02;;;;;;;1.60;1.50;;;;;;;-0.36;71.50;93207.63;5013421;28;20045;-78
2023/03/16 05:09:28;;;;;;;1.40;1.30;;;;;;;-0.15;71.42;93234.56;5011171;28;20475;-78
2023/03/16 05:11:53;;;;;;;1.55;1.45;;;;;;;-0.12;71.60;93221.75;5013374;28;20029;-76
2023/03/16 05:14:19;;;;;;;1.67;1.58;;;;;;;-0.02;71.03;93228.81;4993838;28;20120;-79
2023/03/16 05:16:44;;;;;;;1.88;1.77;;;;;;;-0.12;71.19;93219.13;5011414;28;20057;-78
2023/03/16 05:19:09;;;;;;;1.42;1.40;;;;;;;0.08;70.71;93244.50;4998243;28;20049;-79
2023/03/16 05:21:36;;;;;;;4.00;3.13;;;;;;;-0.03;70.04;93244.75;5011439;28;20041;-77
2023/03/16 05:24:06;;;;;;;2.60;1.30;;;;;;;-0.26;70.54;93215.47;5009859;28;20049;-78
2023/03/16 05:26:31;;;;;;;1.50;1.40;;;;;;;-0.18;70.41;93230.63;5013497;28;20025;-77
2023/03/16 05:28:57;;;;;;;1.50;1.40;;;;;;;-0.08;70.45;93262.00;5012000;28;20081;-78
2023/03/16 05:31:25;;;;;;;3.03;2.08;;;;;;;-0.42;71.20;93237.38;5011603;28;20033;-78
2023/03/16 05:33:51;;;;;;;1.38;1.27;;;;;;;-0.17;70.75;93262.78;5010024;28;20046;-78
2023/03/16 05:36:16;;;;;;;1.90;1.70;;;;;;;-0.29;70.93;93265.66;5001654;28;20041;-78
2023/03/16 05:38:42;;;;;;;1.48;1.17;;;;;;;-0.43;71.58;93240.28;5002847;28;20532;-78
2023/03/16 05:41:08;;;;;;;1.55;1.40;;;;;;;-0.22;71.77;93276.63;4995986;28;20040;-77
2023/03/16 05:43:33;;;;;;;2.33;1.80;;;;;;;-0.26;72.15;93252.06;5011232;28;20034;-77
2023/03/16 05:45:58;;;;;;;3.80;2.95;;;;;;;-0.29;71.19;93264.84;5010581;28;20041;-77
2023/03/16 05:48:26;;;;;;;2.00;1.80;;;;;;;-0.33;71.94;93284.69;5010289;28;20643;-78
2023/03/16 05:50:53;;;;;;;1.30;1.20;;;;;;;-0.59;72.95;93265.56;5011051;28;20040;-76
2023/03/16 05:53:19;;;;;;;1.77;1.67;;;;;;;-0.30;73.12;93294.63;5014542;28;20112;-77
2023/03/16 05:55:50;;;;;;;2.05;1.45;;;;;;;-0.33;73.40;93289.91;5010311;28;20189;-77
2023/03/16 05:58:16;;;;;;;1.20;1.10;;;;;;;-0.31;73.21;93278.16;5011080;28;20049;-78
2023/03/16 06:00:41;;;;;;;2.97;2.67;;;;;;;-0.34;73.64;93301.44;5010143;28;20029;-78
2023/03/16 06:03:06;;;;;;;3.75;3.30;;;;;;;-0.32;74.04;93302.72;5011307;28;20030;-78
2023/03/16 06:05:32;;;;;;;2.50;2.30;;;;;;;-0.31;73.17;93293.06;5012328;28;20063;-77
2023/03/16 06:07:57;;;;;;;1.80;1.60;;;;;;;-0.32;72.59;93313.19;4989742;28;20052;-77
2023/03/16 06:10:25;;;;;;;23.20;15.15;;;;;;;-0.41;73.22;93301.66;5011158;28;20026;-79
2023/03/16 06:12:50;;;;;;;4.18;3.88;;;;;;;-0.49;73.12;93280.47;5011391;28;20700;-78
2023/03/16 06:15:16;;;;;;;2.60;2.40;;;;;;;-0.37;73.95;93323.63;5011686;28;20035;-77
2023/03/16 06:17:41;;;;;;;1.83;1.50;;;;;;;-0.41;73.92;93306.09;5011869;28;20044;-78
2023/03/16 06:20:10;;;;;;;1.55;1.45;;;;;;;-0.51;73.76;93310.25;5010837;28;20032;-76
2023/03/16 06:22:40;;;;;;;2.38;1.40;;;;;;;-0.47;74.04;93305.28;5007511;28;20038;-77
2023/03/16 06:25:06;;;;;;;1.30;1.20;;;;;;;-0.53;74.45;93316.75;5009174;28;20046;-77
2023/03/16 06:27:32;;;;;;;1.80;1.40;;;;;;;-0.48;74.80;93314.16;5014138;28;20129;-77
2023/03/16 06:29:57;;;;;;;1.40;1.10;;;;;;;-0.42;73.10;93309.75;5003077;28;20037;-78
2023/03/16 06:32:23;;;;;;;1.70;1.30;;;;;;;-0.65;72.68;93313.59;5011700;28;20573;-78
2023/03/16 06:34:48;;;;;;;1.70;1.60;;;;;;;-0.52;73.33;93313.13;5008880;28;20065;-77
2023/03/16 06:37:13;;;;;;;2.25;2.13;;;;;;;-0.34;73.09;93325.72;5009213;28;20407;-78
2023/03/16 06:39:39;;;;;;;2.35;2.17;;;;;;;-0.38;71.86;93308.97;5010112;28;20042;-77
2023/03/16 06:42:05;;;;;;;2.58;2.10;;;;;;;-0.11;71.82;93348.00;5010889;28;20049;-77
2023/03/16 06:44:30;;;;;;;1.80;1.70;;;;;;;-0.30;71.42;93315.53;5010595;28;20029;-77
2023/03/16 06:46:56;;;;;;;3.67;2.60;;;;;;;-0.22;71.52;93355.03;4997029;28;20034;-76
2023/03/16 06:49:22;;;;;;;2.00;1.90;;;;;;;-0.31;72.61;93340.09;5008027;28;20026;-77
2023/03/16 06:51:47;;;;;;;9.20;5.47;;;;;;;-0.08;71.47;93358.72;5011547;28;20045;-79
2023/03/16 06:54:13;;;;;;;5.13;3.95;;;;;;;-0.11;70.38;93364.47;5010004;28;20029;-79
2023/03/16 06:56:38;;;;;;;1.65;1.55;;;;;;;-0.60;70.15;93339.72;5009497;28;20430;-78
2023/03/16 06:59:03;;;;;;;2.67;2.40;;;;;;;-0.76;72.36;93320.59;5011485;28;20049;-78
2023/03/16 07:01:29;;;;;;;2.10;1.77;;;;;;;-0.31;72.31;93376.69;5007156;28;20061;-79
2023/03/16 07:03:54;;;;;;;2.22;2.03;;;;;;;-0.18;71.17;93376.97;5009790;28;20658;-79
2023/03/16 07:06:20;;;;;;;2.05;1.90;;;;;;;-0.04;71.31;93379.88;5008561;28;20472;-78
2023/03/16 07:08:46;;;;;;;1.77;1.65;;;;;;;0.05;70.19;93374.97;5010258;28;20563;-79
2023/03/16 07:11:13;;;;;;;2.03;1.92;;;;;;;-0.00;70.42;93388.03;5007314;28;20030;-77
2023/03/16 07:13:39;;;;;;;2.20;1.90;;;;;;;-0.26;70.37;93351.34;5010486;28;20052;-77
2023/03/16 07:16:05;;;;;;;2.88;2.40;;;;;;;-0.11;70.38;93369.69;4998587;28;20843;-78
2023/03/16 07:18:30;;;;;;;2.30;1.70;;;;;;;-0.15;71.53;93384.31;5009183;28;20072;-77
2023/03/16 07:20:56;;;;;;;2.22;2.03;;;;;;;-0.08;71.62;93379.63;5008086;28;20037;-77
2023/03/16 07:23:23;;;;;;;2.50;2.00;;;;;;;-0.07;70.45;93362.13;5008430;28;20393;-77
2023/03/16 07:25:48;;;;;;;1.95;1.85;;;;;;;-0.14;70.01;93378.03;5007869;28;20045;-78
2023/03/16 07:28:14;;;;;;;1.63;1.52;;;;;;;-0.02;71.02;93409.19;5009403;28;20033;-77
2023/03/16 07:30:39;;;;;;;1.70;1.60;;;;;;;-0.05;71.46;93412.31;5009225;28;20644;-77
2023/03/16 07:33:04;;;;;;;1.60;1.38;;;;;;;-0.23;71.63;93408.31;5007240;28;20699;-77
2023/03/16 07:35:30;;;;;;;1.38;1.27;;;;;;;-0.29;71.82;93391.06;5008666;28;20118;-78
2023/03/16 07:37:56;;;;;;;1.13;1.10;;;;;;;-0.38;72.17;93382.13;4986221;28;20045;-77
2023/03/16 07:40:22;;;;;;;1.60;1.50;;;;;;;-0.08;72.15;93408.38;4997412;28;20395;-78
2023/03/16 07:42:47;;;;;;;1.30;1.20;;;;;;;-0.11;71.41;93418.56;5000246;28;20043;-79
2023/03/16 07:45:14;;;;;;;1.50;1.40;;;;;;;0.01;70.37;93410.50;4999217;28;20498;-77
2023/03/16 07:47:39;;;;;;;1.58;1.20;;;;;;;0.16;69.55;93426.22;5001159;28;20440;-78
2023/03/16 07:50:05;;;;;;;2.67;2.47;;;;;;;0.09;70.85;93423.09;5001995;28;20045;-78
2023/03/16 07:52:30;;;;;;;5.03;4.25;;;;;;;0.17;70.73;93417.34;5000454;28;20080;-77
2023/03/16 07:54:56;;;;;;;6.90;5.20;;;;;;;0.06;70.43;93392.19;5002372;28;20041;-78
2023/03/16 07:57:21;;;;;;;5.70;4.55;;;;;;;-0.01;69.16;93391.69;4996364;28;20042;-79
2023/03/16 07:59:47;;;;;;;5.22;4.68;;;;;;;0.22;69.98;93427.81;4998021;28;20131;-77
2023/03/16 08:02:14;;;;;;;5.07;4.47;;;;;;;0.05;70.17;93390.66;4999986;28;20045;-78
2023/03/16 08:04:43;;;;;;;4.50;4.10;;;;;;;0.30;69.01;93409.03;4999818;28;20048;-78
2023/03/16 08:07:10;;;;;;;12.57;7.32;;;;;;;0.58;68.78;93421.63;5000955;28;20029;-79
2023/03/16 08:09:36;;;;;;;6.10;4.30;;;;;;;0.30;67.65;93393.31;4997718;28;20033;-78
2023/03/16 08:12:02;;;;;;;1.55;1.42;;;;;;;0.39;68.80;93417.94;5002352;28;20041;-76
2023/03/16 08:14:28;;;;;;;2.10;1.90;;;;;;;0.41;69.08;93428.13;4998349;28;20040;-76
2023/03/16 08:16:54;;;;;;;1.83;1.60;;;;;;;0.37;69.40;93425.25;5000610;28;20697;-79
2023/03/16 08:19:19;;;;;;;2.53;2.20;;;;;;;0.38;69.37;93437.28;5001312;28;20037;-78
2023/03/16 08:21:45;;;;;;;2.33;2.00;;;;;;;0.46;69.41;93433.34;5000293;28;20420;-78
2023/03/16 08:24:10;;;;;;;1.90;1.67;;;;;;;0.48;69.08;93442.53;4999137;28;20063;-79
2023/03/16 08:26:35;;;;;;;1.75;1.63;;;;;;;0.52;68.29;93442.78;5000676;28;20025;-79
2023/03/16 08:29:02;;;;;;;2.05;1.60;;;;;;;0.56;68.71;93439.38;4999190;28;20132;-78
2023/03/16 08:31:28;;;;;;;1.85;1.48;;;;;;;0.40;68.50;93409.00;5000317;28;20592;-78
2023/03/16 08:33:53;;;;;;;1.92;1.70;;;;;;;0.33;67.48;93411.91;5000165;28;20033;-78
2023/03/16 08:36:19;;;;;;;1.60;1.50;;;;;;;0.59;67.67;93446.75;4999194;28;20878;-78
2023/03/16 08:38:46;;;;;;;3.03;1.65;;;;;;;0.69;68.01;93459.81;4999758;28;20025;-79
2023/03/16 08:41:12;;;;;;;1.55;1.38;;;;;;;0.55;67.37;93448.28;5001749;28;20103;-76
2023/03/16 08:43:38;;;;;;;1.85;1.65;;;;;;;0.56;67.72;93444.63;5001257;28;20096;-76
2023/03/16 08:46:04;;;;;;;2.97;1.98;;;;;;;0.76;68.35;93455.13;5001174;28;20117;-77
2023/03/16 08:48:32;;;;;;;2.30;1.80;;;;;;;0.86;66.82;93462.19;4982715;28;20091;-75
2023/03/16 08:51:01;;;;;;;1.98;1.60;;;;;;;0.84;67.70;93460.91;5001521;28;20091;-75
2023/03/16 08:53:27;;;;;;;1.88;1.77;;;;;;;0.73;66.61;93460.91;5004751;28;20052;-76
2023/03/16 08:56:00;;;;;;;2.38;1.85;;;;;;;0.87;66.97;93457.75;5005079;28;20083;-78
2023/03/16 08:58:26;;;;;;;1.73;1.40;;;;;;;0.61;66.98;93447.25;5003374;28;20033;-75
2023/03/16 09:00:51;;;;;;;3.63;1.80;;;;;;;0.67;66.86;93454.06;5002666;28;20470;-76
2023/03/16 09:03:17;;;;;;;9.77;6.07;;;;;;;0.84;67.68;93455.66;5004868;28;20045;-77
2023/03/16 09:05:42;;;;;;;3.85;3.53;;;;;;;0.76;65.96;93460.34;5002189;28;20133;-77
2023/03/16 09:08:08;;;;;;;1.52;1.42;;;;;;;0.71;67.63;93465.59;5001203;28;20151;-76
2023/03/16 09:10:35;;;;;;;3.13;2.60;;;;;;;0.79;68.20;93472.91;5000083;28;20045;-77
2023/03/16 09:13:01;;;;;;;2.92;2.08;;;;;;;0.57;66.95;93446.22;4991667;28;20037;-76
2023/03/16 09:15:27;;;;;;;2.45;2.15;;;;;;;0.34;66.85;93444.06;4999653;28;20113;-76
2023/03/16 09:17:53;;;;;;;3.22;2.70;;;;;;;0.74;67.47;93483.38;5004481;28;20089;-76
2023/03/16 09:20:19;;;;;;;2.15;1.95;;;;;;;0.80;67.24;93477.13;4986101;28;20500;-77
2023/03/16 09:22:45;;;;;;;1.60;1.50;;;;;;;0.75;66.98;93464.03;5003350;28;20405;-78
2023/03/16 09:25:11;;;;;;;2.35;2.15;;;;;;;0.84;67.99;93471.38;5001578;28;20056;-76
2023/03/16 09:27:36;;;;;;;1.98;1.77;;;;;;;0.98;68.26;93488.13;5004523;28;20069;-76
2023/03/16 09:30:06;;;;;;;1.52;1.33;;;;;;;0.91;66.91;93487.59;4981823;28;20025;-77
2023/03/16 09:32:32;;;;;;;1.45;1.30;;;;;;;0.69;66.81;93467.66;5000836;28;20488;-77
2023/03/16 09:34:58;;;;;;;1.73;1.63;;;;;;;0.93;66.38;93485.50;5003369;28;20050;-77
2023/03/16 09:37:24;;;;;;;2.35;1.85;;;;;;;1.13;67.06;93491.53;5000939;28;20042;-76
2023/03/16 09:39:50;;;;;;;11.70;6.45;;;;;;;1.26;66.00;93492.84;4995744;28;20041;-77
2023/03/16 09:42:25;;;;;;;13.27;7.25;;;;;;;1.15;66.07;93486.03;4985222;28;20057;-76
2023/03/16 09:45:04;;;;;;;2.30;2.10;;;;;;;1.13;64.43;93485.53;4986954;28;20037;-76
2023/03/16 09:47:31;;;;;;;1.77;1.65;;;;;;;1.13;65.13;93490.78;4998481;28;20041;-76
2023/03/16 09:50:01;;;;;;;1.60;1.50;;;;;;;1.12;67.39;93495.22;4998064;28;20061;-75
2023/03/16 09:52:54;;;;;;;2.38;2.00;;;;;;;1.13;68.21;93490.78;5000591;28;20333;-76
2023/03/16 09:55:30;;;;;;;2.63;2.22;;;;;;;1.09;68.18;93459.06;5000845;28;20069;-76
2023/03/16 09:57:58;;;;;;;2.97;2.67;;;;;;;1.23;67.63;93490.75;5006998;28;20038;-76
2023/03/16 10:00:29;;;;;;;4.00;2.85;;;;;;;1.12;68.96;93452.53;5000707;28;20069;-77
2023/03/16 10:03:24;;;;;;;2.55;2.08;;;;;;;1.47;68.49;93498.88;5004424;28;20041;-76
2023/03/16 10:05:58;;;;;;;3.05;2.30;;;;;;;1.12;66.90;93452.53;5003767;28;20041;-77
2023/03/16 10:08:34;;;;;;;1.73;1.63;;;;;;;1.12;66.24;93457.75;5001649;28;20112;-77
2023/03/16 10:11:15;;;;;;;3.42;2.85;;;;;;;1.35;65.74;93491.28;5002920;28;20283;-76
2023/03/16 10:13:43;;;;;;;2.00;1.80;;;;;;;1.03;65.38;93496.78;4988867;28;20098;-77
2023/03/16 10:16:18;;;;;;;2.05;1.95;;;;;;;0.99;66.97;93498.34;5000774;28;20037;-77
2023/03/16 10:18:52;;;;;;;3.25;2.10;;;;;;;0.86;67.32;93483.16;5000657;28;20050;-75
2023/03/16 10:21:18;;;;;;;2.33;2.13;;;;;;;0.96;66.40;93500.69;5001316;28;21109;-79
2023/03/16 10:23:47;;;;;;;2.13;2.00;;;;;;;0.90;68.00;93475.53;5001788;28;20034;-75
2023/03/16 10:26:28;;;;;;;2.65;2.45;;;;;;;1.05;66.96;93483.41;5004602;28;20192;-79
2023/03/16 10:28:53;;;;;;;5.22;3.90;;;;;;;1.15;66.09;93484.19;4983678;28;20042;-78
2023/03/16 10:31:21;;;;;;;3.03;2.50;;;;;;;1.11;65.86;93503.31;5002004;28;20631;-77
2023/03/16 10:33:51;;;;;;;2.40;2.20;;;;;;;0.89;67.18;93479.22;5000835;28;20041;-77
2023/03/16 10:36:38;;;;;;;2.88;2.22;;;;;;;1.18;67.07;93506.47;5003868;28;20037;-78
2023/03/16 10:39:09;;;;;;;2.63;2.33;;;;;;;1.05;66.98;93504.38;4997773;28;20038;-77
2023/03/16 10:41:40;;;;;;;2.40;2.20;;;;;;;1.11;67.82;93498.88;5002616;28;20022;-77
2023/03/16 10:44:11;;;;;;;2.53;2.20;;;;;;;1.19;68.20;93487.06;4998664;28;20537;-78
2023/03/16 10:46:47;;;;;;;2.20;1.90;;;;;;;1.24;66.08;93476.59;4990802;28;20065;-78
2023/03/16 10:49:24;;;;;;;7.78;4.47;;;;;;;1.32;65.82;93499.66;4999523;28;20033;-78
2023/03/16 10:51:51;;;;;;;4.13;2.75;;;;;;;1.26;65.49;93499.94;4983636;28;20971;-79
2023/03/16 10:54:30;;;;;;;3.05;2.10;;;;;;;1.27;65.24;93493.66;4982719;28;20517;-78
2023/03/16 10:56:57;;;;;;;2.70;2.20;;;;;;;1.19;66.26;93492.31;4982434;28;20080;-77
2023/03/16 10:59:31;;;;;;;2.80;2.53;;;;;;;1.38;66.81;93501.22;4999720;28;20148;-78
2023/03/16 11:01:57;;;;;;;2.42;2.22;;;;;;;1.35;65.93;93495.72;5000459;28;20053;-77
2023/03/16 11:04:23;;;;;;;3.30;3.00;;;;;;;1.23;66.55;93501.22;4999784;28;22148;-77
2023/03/16 11:06:58;;;;;;;3.20;2.90;;;;;;;1.15;65.11;93488.66;4989339;28;20351;-78
2023/03/16 11:09:30;;;;;;;4.25;3.55;;;;;;;1.15;66.36;93497.31;4985706;28;20043;-79
2023/03/16 11:11:56;;;;;;;4.10;3.10;;;;;;;1.07;67.63;93483.94;5001026;28;20037;-77
2023/03/16 11:14:27;;;;;;;3.70;3.20;;;;;;;1.02;66.01;93468.22;5003587;28;20577;-77
2023/03/16 11:17:18;;;;;;;2.70;2.50;;;;;;;1.33;66.07;93501.22;4999357;28;20037;-78
2023/03/16 11:19:56;;;;;;;4.40;3.72;;;;;;;1.26;65.57;93477.13;4965240;28;20223;-78
2023/03/16 11:22:28;;;;;;;4.93;3.67;;;;;;;1.28;65.74;93501.22;4999985;28;20101;-77
2023/03/16 11:24:54;;;;;;;3.45;3.15;;;;;;;1.31;67.24;93508.56;4986956;28;21340;-79
2023/03/16 11:27:35;;;;;;;3.72;3.35;;;;;;;1.40;65.30;93507.00;5003713;28;20048;-79
2023/03/16 11:30:12;;;;;;;4.50;3.78;;;;;;;0.90;66.05;93475.53;4985819;28;20117;-78
2023/03/16 11:32:40;;;;;;;4.80;4.00;;;;;;;0.93;66.05;93480.28;4985228;28;20033;-76
2023/03/16 11:35:15;;;;;;;4.88;3.28;;;;;;;0.84;65.73;93479.22;5000384;28;20648;-77
2023/03/16 11:38:17;;;;;;;4.18;3.70;;;;;;;1.11;66.32;93492.84;5000723;28;20061;-77
2023/03/16 11:40:56;;;;;;;3.88;3.47;;;;;;;1.25;65.71;93501.75;4999659;28;20045;-78
2023/03/16 11:43:43;;;;;;;4.32;3.92;;;;;;;1.15;66.25;93499.91;5001868;28;20520;-77